Time;durP1;ratioP1;P1;durP2;ratioP2;P2;SDS_P1;SDS_P2;PMS_P1;PMS_P2;Temp;Humidity;BMP_temperature;BMP_pressure;BME280_temperature;BME280_humidity;BME280_pressure;Samples;Min_cycle;Max_cycle;Signal;HPM_P1;HPM_P2
2023/09/11 00:01:44;;;;;;;17.92;7.15;;;;;;;;;;4955150;29;20042;-81
2023/09/11 00:04:15;;;;;;;16.73;7.07;;;;;;;;;;4937463;29;20521;-82
2023/09/11 00:06:46;;;;;;;16.02;7.10;;;;;;;;;;4943534;28;20047;-82
2023/09/11 00:09:20;;;;;;;15.05;6.82;;;;;;;;;;4973349;28;20390;-81
2023/09/11 00:11:51;;;;;;;14.25;6.40;;;;;;;;;;4973963;28;20355;-82
2023/09/11 00:14:21;;;;;;;19.42;7.22;;;;;;;;;;4973291;28;20050;-82
2023/09/11 00:16:52;;;;;;;17.27;6.93;;;;;;;;;;4973725;28;20512;-81
2023/09/11 00:19:23;;;;;;;15.13;5.88;;;;;;;;;;4973034;28;20042;-82
2023/09/11 00:21:56;;;;;;;11.55;6.13;;;;;;;;;;4974311;28;20039;-82
2023/09/11 00:24:28;;;;;;;13.85;6.57;;;;;;;;;;4973421;28;20486;-80
2023/09/11 00:27:00;;;;;;;15.13;6.63;;;;;;;;;;4955799;28;20066;-81
2023/09/11 00:29:31;;;;;;;19.38;6.72;;;;;;;;;;4972910;28;20050;-81
2023/09/11 00:32:01;;;;;;;15.55;5.97;;;;;;;;;;4953678;28;20045;-81
2023/09/11 00:34:31;;;;;;;11.02;5.40;;;;;;;;;;4972899;28;20027;-81
2023/09/11 00:37:04;;;;;;;14.38;5.80;;;;;;;;;;4955411;28;20398;-81
2023/09/11 00:39:35;;;;;;;11.75;4.97;;;;;;;;;;4970931;28;20041;-82
2023/09/11 00:42:05;;;;;;;17.45;5.75;;;;;;;;;;4972631;28;20039;-82
2023/09/11 00:44:38;;;;;;;11.55;5.95;;;;;;;;;;4971453;28;20031;-80
2023/09/11 00:47:10;;;;;;;14.00;6.25;;;;;;;;;;4955507;28;20054;-81
2023/09/11 00:49:43;;;;;;;16.65;6.05;;;;;;;;;;4973048;28;20050;-82
2023/09/11 00:52:13;;;;;;;16.13;5.88;;;;;;;;;;4970468;28;20047;-81
2023/09/11 00:54:45;;;;;;;8.55;4.78;;;;;;;;;;4954223;28;20042;-81
2023/09/11 00:57:18;;;;;;;24.70;7.15;;;;;;;;;;4955372;28;20046;-80
2023/09/11 00:59:50;;;;;;;12.80;4.90;;;;;;;;;;4973383;28;20057;-82
2023/09/11 01:02:21;;;;;;;10.63;5.18;;;;;;;;;;4956273;28;20517;-82
2023/09/11 01:04:54;;;;;;;14.05;5.10;;;;;;;;;;4956935;28;20050;-84
2023/09/11 01:07:27;;;;;;;13.63;5.10;;;;;;;;;;4959276;28;20046;-84
2023/09/11 01:09:59;;;;;;;15.23;5.30;;;;;;;;;;4944633;28;20422;-84
2023/09/11 01:12:30;;;;;;;15.95;6.35;;;;;;;;;;4959477;28;20066;-81
2023/09/11 01:15:00;;;;;;;18.23;5.75;;;;;;;;;;4960365;28;20378;-82
2023/09/11 01:17:44;;;;;;;15.00;5.93;;;;;;;;;;4976773;28;20580;-81
2023/09/11 01:20:33;;;;;;;18.83;6.40;;;;;;;;;;4977363;28;20046;-82
2023/09/11 01:23:29;;;;;;;15.60;7.00;;;;;;;;;;4976704;28;20394;-82
2023/09/11 01:26:23;;;;;;;14.25;6.28;;;;;;;;;;4976933;28;20240;-81
2023/09/11 01:29:07;;;;;;;14.65;5.75;;;;;;;;;;4977112;28;20050;-80
2023/09/11 01:31:40;;;;;;;13.32;6.03;;;;;;;;;;4976930;28;20046;-82
2023/09/11 01:34:13;;;;;;;12.95;5.30;;;;;;;;;;4958997;28;20051;-81
2023/09/11 01:36:43;;;;;;;12.73;5.85;;;;;;;;;;4959696;28;20047;-81
2023/09/11 01:39:14;;;;;;;14.50;5.85;;;;;;;;;;4959846;28;20042;-81
2023/09/11 01:41:48;;;;;;;13.95;5.80;;;;;;;;;;4959174;28;20046;-81
2023/09/11 01:44:32;;;;;;;11.45;5.57;;;;;;;;;;4958832;28;20406;-81
2023/09/11 01:47:04;;;;;;;11.95;5.43;;;;;;;;;;4959697;28;20065;-80
2023/09/11 01:49:38;;;;;;;15.30;5.35;;;;;;;;;;4976560;28;20489;-81
2023/09/11 01:52:15;;;;;;;15.00;5.55;;;;;;;;;;4977938;28;20355;-80
2023/09/11 01:54:48;;;;;;;14.63;5.78;;;;;;;;;;4976344;28;20346;-81
2023/09/11 01:57:20;;;;;;;14.40;5.90;;;;;;;;;;4958459;28;20050;-80
2023/09/11 01:59:53;;;;;;;12.55;5.88;;;;;;;;;;4958849;28;20055;-80
2023/09/11 02:02:29;;;;;;;16.52;6.43;;;;;;;;;;4958736;28;20513;-80
2023/09/11 02:05:01;;;;;;;11.52;5.45;;;;;;;;;;4976266;28;20046;-80
2023/09/11 02:07:37;;;;;;;16.50;5.53;;;;;;;;;;4958315;28;20046;-81
2023/09/11 02:10:10;;;;;;;13.88;4.78;;;;;;;;;;4942044;28;20062;-80
2023/09/11 02:12:42;;;;;;;14.20;5.78;;;;;;;;;;4958810;28;20047;-81
2023/09/11 02:15:12;;;;;;;11.70;5.03;;;;;;;;;;4958399;28;20109;-81
2023/09/11 02:17:45;;;;;;;13.73;5.30;;;;;;;;;;4975796;28;20039;-81
2023/09/11 02:20:16;;;;;;;13.60;5.55;;;;;;;;;;4958853;28;20062;-80
2023/09/11 02:22:46;;;;;;;12.82;5.32;;;;;;;;;;4975949;28;20054;-81
2023/09/11 02:25:16;;;;;;;12.73;6.00;;;;;;;;;;4975513;28;20039;-82
2023/09/11 02:27:47;;;;;;;13.75;5.40;;;;;;;;;;4975787;28;20043;-78
2023/09/11 02:30:18;;;;;;;16.48;6.22;;;;;;;;;;4975487;28;20054;-79
2023/09/11 02:32:50;;;;;;;21.98;6.72;;;;;;;;;;4975496;28;20046;-80
2023/09/11 02:35:22;;;;;;;15.15;6.05;;;;;;;;;;4975867;28;20042;-79
2023/09/11 02:37:53;;;;;;;17.70;6.63;;;;;;;;;;4958136;28;20054;-79
2023/09/11 02:40:25;;;;;;;17.83;8.07;;;;;;;;;;4957770;28;20398;-80
2023/09/11 02:42:55;;;;;;;14.52;5.93;;;;;;;;;;4957921;28;20050;-80
2023/09/11 02:45:27;;;;;;;11.55;5.65;;;;;;;;;;4975568;28;20034;-80
2023/09/11 02:47:57;;;;;;;13.25;5.90;;;;;;;;;;4958206;28;20047;-79
2023/09/11 02:50:29;;;;;;;;;;;;;;;;;;4956865;28;20406;-80
2023/09/11 02:52:59;;;;;;;13.68;5.47;;;;;;;;;;4975118;28;19924;-81
2023/09/11 02:55:30;;;;;;;16.23;5.47;;;;;;;;;;4974785;28;20033;-80
2023/09/11 02:58:02;;;;;;;13.35;5.82;;;;;;;;;;4974928;28;20102;-80
2023/09/11 03:00:35;;;;;;;14.45;5.45;;;;;;;;;;4975097;28;20043;-80
2023/09/11 03:03:10;;;;;;;13.93;5.65;;;;;;;;;;4957708;28;20487;-81
2023/09/11 03:05:43;;;;;;;15.73;6.00;;;;;;;;;;4957728;28;20051;-81
2023/09/11 03:08:13;;;;;;;13.10;5.03;;;;;;;;;;4955314;29;20494;-79
2023/09/11 03:10:43;;;;;;;11.45;5.35;;;;;;;;;;4955739;29;20043;-81
2023/09/11 03:13:14;;;;;;;12.90;5.95;;;;;;;;;;4937581;29;20112;-80
2023/09/11 03:15:47;;;;;;;19.15;6.75;;;;;;;;;;4938987;29;20035;-81
2023/09/11 03:18:17;;;;;;;18.02;7.03;;;;;;;;;;4955584;29;20047;-81
2023/09/11 03:20:54;;;;;;;16.45;5.78;;;;;;;;;;4922840;29;20387;-82
2023/09/11 03:23:25;;;;;;;22.25;6.25;;;;;;;;;;4938217;29;20043;-80
2023/09/11 03:25:55;;;;;;;18.77;6.82;;;;;;;;;;4939073;29;20047;-80
2023/09/11 03:28:29;;;;;;;17.27;5.57;;;;;;;;;;4939297;28;20067;-78
2023/09/11 03:31:05;;;;;;;23.35;5.53;;;;;;;;;;4955828;28;20049;-81
2023/09/11 03:33:38;;;;;;;16.65;4.97;;;;;;;;;;4958223;28;20054;-80
2023/09/11 03:36:18;;;;;;;16.15;5.10;;;;;;;;;;4956793;28;20054;-80
2023/09/11 03:38:51;;;;;;;11.50;5.07;;;;;;;;;;4975490;28;20070;-81
2023/09/11 03:41:21;;;;;;;15.80;4.90;;;;;;;;;;4956786;28;20058;-80
2023/09/11 03:43:52;;;;;;;10.88;4.32;;;;;;;;;;4957676;28;20494;-82
2023/09/11 03:46:24;;;;;;;11.30;4.55;;;;;;;;;;4957776;28;20054;-80
2023/09/11 03:48:55;;;;;;;16.85;5.30;;;;;;;;;;4957483;28;20046;-80
2023/09/11 03:51:25;;;;;;;10.48;4.78;;;;;;;;;;4957780;28;20050;-81
2023/09/11 03:53:58;;;;;;;10.63;4.85;;;;;;;;;;4957226;28;20051;-80
2023/09/11 03:56:33;;;;;;;11.05;4.93;;;;;;;;;;4956833;28;20446;-80
2023/09/11 03:59:04;;;;;;;13.15;4.90;;;;;;;;;;4957283;28;20058;-80
2023/09/11 04:01:35;;;;;;;13.23;4.68;;;;;;;;;;4957515;28;20054;-80
2023/09/11 04:04:09;;;;;;;14.82;5.00;;;;;;;;;;4974132;28;20043;-80
2023/09/11 04:06:43;;;;;;;9.55;4.57;;;;;;;;;;4974984;28;20049;-81
2023/09/11 04:09:19;;;;;;;11.90;4.72;;;;;;;;;;4974971;28;20347;-80
2023/09/11 04:11:49;;;;;;;;;;;;;;;;;;4957570;28;20046;-81
2023/09/11 04:14:19;;;;;;;12.88;4.53;;;;;;;;;;4956707;28;19940;-81
2023/09/11 04:16:51;;;;;;;11.75;5.40;;;;;;;;;;4956338;28;20054;-82
2023/09/11 04:19:22;;;;;;;14.40;5.15;;;;;;;;;;4956996;28;20047;-81
2023/09/11 04:21:52;;;;;;;18.30;5.78;;;;;;;;;;4956982;28;20063;-81
2023/09/11 04:24:23;;;;;;;12.30;5.03;;;;;;;;;;4944509;29;20059;-81
2023/09/11 04:26:55;;;;;;;13.18;5.30;;;;;;;;;;4937859;29;20055;-81
2023/09/11 04:29:31;;;;;;;12.80;4.35;;;;;;;;;;4937977;29;20494;-80
2023/09/11 04:32:02;;;;;;;9.55;4.32;;;;;;;;;;4938185;29;20051;-81
2023/09/11 04:34:33;;;;;;;10.35;4.43;;;;;;;;;;4937814;29;20051;-80
2023/09/11 04:37:04;;;;;;;18.15;5.30;;;;;;;;;;4977265;29;20043;-80
2023/09/11 04:39:37;;;;;;;11.40;4.50;;;;;;;;;;4973947;28;20042;-79
2023/09/11 04:42:07;;;;;;;16.92;5.53;;;;;;;;;;4938564;29;20061;-79
2023/09/11 04:44:38;;;;;;;12.85;4.95;;;;;;;;;;4959401;28;20035;-81
2023/09/11 04:47:11;;;;;;;13.27;5.38;;;;;;;;;;4962165;28;20069;-81
2023/09/11 04:49:42;;;;;;;16.35;5.53;;;;;;;;;;4979087;28;20028;-82
2023/09/11 04:52:12;;;;;;;14.70;5.70;;;;;;;;;;4959081;28;20037;-80
2023/09/11 04:54:44;;;;;;;14.45;5.40;;;;;;;;;;4937732;29;20066;-80
2023/09/11 04:57:15;;;;;;;12.23;4.68;;;;;;;;;;4937475;29;20051;-79
2023/09/11 04:59:47;;;;;;;13.50;4.80;;;;;;;;;;4937377;29;20525;-79
2023/09/11 05:02:20;;;;;;;9.52;4.65;;;;;;;;;;4955119;29;20383;-79
2023/09/11 05:04:50;;;;;;;12.15;4.50;;;;;;;;;;4955004;28;20050;-80
2023/09/11 05:07:21;;;;;;;12.40;4.72;;;;;;;;;;4937376;29;20048;-80
2023/09/11 05:09:52;;;;;;;9.45;4.18;;;;;;;;;;4954864;29;20051;-79
2023/09/11 05:12:22;;;;;;;11.98;5.05;;;;;;;;;;4937765;29;20398;-81
2023/09/11 05:14:53;;;;;;;18.90;5.18;;;;;;;;;;4937108;29;20083;-79
2023/09/11 05:17:24;;;;;;;18.38;5.63;;;;;;;;;;4954667;29;20054;-80
2023/09/11 05:19:56;;;;;;;16.02;5.28;;;;;;;;;;4937345;29;20051;-79
2023/09/11 05:22:26;;;;;;;13.27;4.78;;;;;;;;;;4954745;29;20044;-81
2023/09/11 05:24:56;;;;;;;15.00;5.53;;;;;;;;;;4955163;29;20055;-79
2023/09/11 05:27:31;;;;;;;11.85;5.35;;;;;;;;;;4954780;29;20074;-79
2023/09/11 05:30:05;;;;;;;15.38;6.07;;;;;;;;;;4936867;29;20043;-79
2023/09/11 05:32:35;;;;;;;11.50;5.45;;;;;;;;;;4954932;29;20043;-80
2023/09/11 05:35:08;;;;;;;11.85;5.10;;;;;;;;;;4954310;29;20043;-80
2023/09/11 05:37:41;;;;;;;10.82;5.13;;;;;;;;;;4938136;29;20031;-79
2023/09/11 05:40:15;;;;;;;12.57;4.90;;;;;;;;;;4954516;29;20039;-80
2023/09/11 05:42:46;;;;;;;11.35;4.38;;;;;;;;;;4955058;29;20047;-79
2023/09/11 05:45:16;;;;;;;13.45;4.35;;;;;;;;;;4954397;29;20041;-81
2023/09/11 05:47:47;;;;;;;14.80;4.57;;;;;;;;;;4954454;29;20050;-79
2023/09/11 05:50:17;;;;;;;13.13;4.15;;;;;;;;;;4937229;28;20047;-80
2023/09/11 05:52:50;;;;;;;11.77;3.65;;;;;;;;;;4958078;29;20047;-79
2023/09/11 05:55:20;;;;;;;12.10;4.00;;;;;;;;;;4958174;29;20371;-79
2023/09/11 05:57:50;;;;;;;14.20;4.20;;;;;;;;;;4957845;29;20050;-79
2023/09/11 06:00:24;;;;;;;14.15;4.95;;;;;;;;;;4957804;29;20043;-79
2023/09/11 06:02:58;;;;;;;13.82;4.68;;;;;;;;;;4958020;29;20367;-80
2023/09/11 06:05:31;;;;;;;12.77;4.07;;;;;;;;;;4957567;29;20383;-79
2023/09/11 06:08:06;;;;;;;11.35;4.30;;;;;;;;;;4957648;29;20062;-80
2023/09/11 06:10:37;;;;;;;11.27;4.30;;;;;;;;;;4940194;29;20058;-81
2023/09/11 06:13:10;;;;;;;9.38;4.07;;;;;;;;;;4957946;29;20043;-81
2023/09/11 06:15:40;;;;;;;10.00;4.53;;;;;;;;;;4941148;29;20049;-79
2023/09/11 06:18:12;;;;;;;12.73;5.03;;;;;;;;;;4957869;29;20047;-79
2023/09/11 06:20:42;;;;;;;12.35;5.13;;;;;;;;;;4958053;29;20043;-80
2023/09/11 06:23:15;;;;;;;13.35;4.78;;;;;;;;;;4957147;29;20047;-80
2023/09/11 06:25:45;;;;;;;10.73;4.35;;;;;;;;;;4957183;29;20047;-79
2023/09/11 06:28:16;;;;;;;13.25;4.07;;;;;;;;;;4957353;29;20475;-79
2023/09/11 06:30:47;;;;;;;11.98;4.38;;;;;;;;;;4957478;29;20463;-79
2023/09/11 06:33:18;;;;;;;11.30;4.35;;;;;;;;;;4957545;28;20039;-79
2023/09/11 06:35:49;;;;;;;15.63;5.32;;;;;;;;;;4957082;29;20467;-80
2023/09/11 06:38:21;;;;;;;16.15;5.63;;;;;;;;;;4940446;29;20047;-81
2023/09/11 06:40:57;;;;;;;14.30;5.57;;;;;;;;;;4957209;29;20047;-80
2023/09/11 06:43:31;;;;;;;15.32;6.15;;;;;;;;;;4957286;29;20031;-80
2023/09/11 06:46:02;;;;;;;16.17;6.10;;;;;;;;;;4924477;29;20058;-80
2023/09/11 06:48:33;;;;;;;14.73;5.10;;;;;;;;;;4938903;29;20050;-80
2023/09/11 06:51:03;;;;;;;13.02;5.18;;;;;;;;;;4939487;29;20046;-80
2023/09/11 06:53:39;;;;;;;14.10;4.82;;;;;;;;;;4939856;29;20483;-80
2023/09/11 06:56:08;;;;;;;14.77;5.22;;;;;;;;;;4957309;29;20035;-80
2023/09/11 06:58:42;;;;;;;20.30;4.90;;;;;;;;;;4956745;29;20050;-80
2023/09/11 07:01:16;;;;;;;10.80;4.38;;;;;;;;;;4939238;29;20047;-79
2023/09/11 07:03:47;;;;;;;10.82;5.07;;;;;;;;;;4955861;28;20344;-78
2023/09/11 07:06:17;;;;;;;10.77;5.35;;;;;;;;;;4956704;28;20046;-79
2023/09/11 07:08:49;;;;;;;;;;;;;;;;;;4939519;29;20058;-78
2023/09/11 07:11:22;;;;;;;15.00;4.85;;;;;;;;;;4956969;29;19919;-78
2023/09/11 07:13:58;;;;;;;15.07;6.07;;;;;;;;;;4956437;29;20493;-80
2023/09/11 07:16:29;;;;;;;14.02;5.70;;;;;;;;;;4940614;29;20050;-78
2023/09/11 07:18:59;;;;;;;17.05;5.70;;;;;;;;;;4939939;29;20387;-78
2023/09/11 07:21:34;;;;;;;14.63;5.70;;;;;;;;;;4956313;29;20374;-78
2023/09/11 07:24:05;;;;;;;13.57;4.97;;;;;;;;;;4956517;29;20047;-80
2023/09/11 07:26:35;;;;;;;15.95;5.13;;;;;;;;;;4938910;29;20047;-79
2023/09/11 07:29:08;;;;;;;13.05;5.30;;;;;;;;;;4956292;29;20050;-78
2023/09/11 07:31:41;;;;;;;15.25;6.13;;;;;;;;;;4956599;29;20047;-79
2023/09/11 07:34:12;;;;;;;;;;;;;;;;;;4957073;29;20039;-79
2023/09/11 07:36:43;;;;;;;13.00;4.85;;;;;;;;;;4956145;29;20258;-79
2023/09/11 07:39:17;;;;;;;13.52;4.65;;;;;;;;;;4955937;29;20043;-80
2023/09/11 07:41:48;;;;;;;15.93;5.00;;;;;;;;;;4938921;29;20051;-79
2023/09/11 07:44:20;;;;;;;15.50;6.38;;;;;;;;;;4939306;29;20054;-81
2023/09/11 07:46:51;;;;;;;12.70;5.10;;;;;;;;;;4956129;29;20039;-79
2023/09/11 07:49:22;;;;;;;14.85;5.80;;;;;;;;;;4937921;29;20484;-80
2023/09/11 07:51:53;;;;;;;12.18;5.03;;;;;;;;;;4939281;29;20058;-79
2023/09/11 07:54:29;;;;;;;13.35;5.20;;;;;;;;;;4955949;29;20455;-81
2023/09/11 07:57:01;;;;;;;13.55;5.00;;;;;;;;;;4955742;29;20035;-80
2023/09/11 07:59:32;;;;;;;;;;;;;;;;;;4955994;29;20046;-79
2023/09/11 08:02:03;;;;;;;14.10;5.07;;;;;;;;;;4956076;28;19923;-79
2023/09/11 08:04:36;;;;;;;10.52;4.97;;;;;;;;;;4955482;29;20050;-79
2023/09/11 08:07:06;;;;;;;13.93;5.55;;;;;;;;;;4937908;29;20051;-80
2023/09/11 08:09:37;;;;;;;14.13;5.82;;;;;;;;;;4955650;29;20356;-79
2023/09/11 08:12:10;;;;;;;17.77;5.60;;;;;;;;;;4955176;29;20046;-79
2023/09/11 08:14:42;;;;;;;16.55;5.72;;;;;;;;;;4955121;28;20058;-77
2023/09/11 08:17:14;;;;;;;13.15;5.30;;;;;;;;;;4939099;29;20482;-78
2023/09/11 08:19:46;;;;;;;15.30;5.45;;;;;;;;;;4955527;29;20051;-79
2023/09/11 08:22:16;;;;;;;16.05;5.13;;;;;;;;;;4955280;29;20054;-78
2023/09/11 08:24:54;;;;;;;12.38;5.57;;;;;;;;;;4937169;29;20394;-78
2023/09/11 08:27:25;;;;;;;12.27;5.10;;;;;;;;;;4955687;29;20043;-77
2023/09/11 08:30:00;;;;;;;16.08;5.28;;;;;;;;;;4955217;29;20043;-78
2023/09/11 08:32:33;;;;;;;15.93;5.80;;;;;;;;;;4938640;29;20047;-78
2023/09/11 08:35:06;;;;;;;14.05;5.70;;;;;;;;;;4937252;29;20051;-79
2023/09/11 08:37:36;;;;;;;13.90;5.13;;;;;;;;;;4955397;29;20046;-78
2023/09/11 08:40:07;;;;;;;13.85;5.82;;;;;;;;;;4955052;29;20043;-78
2023/09/11 08:42:40;;;;;;;13.00;6.18;;;;;;;;;;4937677;29;20054;-77
2023/09/11 08:45:13;;;;;;;15.55;5.20;;;;;;;;;;4955666;29;20467;-80
2023/09/11 08:47:49;;;;;;;12.80;5.68;;;;;;;;;;4955539;29;20043;-78
2023/09/11 08:50:22;;;;;;;12.88;4.72;;;;;;;;;;4937496;29;20062;-79
2023/09/11 08:53:01;;;;;;;15.00;5.60;;;;;;;;;;4954558;29;20058;-77
2023/09/11 08:55:35;;;;;;;14.52;5.15;;;;;;;;;;4955474;28;20517;-78
2023/09/11 08:58:08;;;;;;;;;;;;;;;;;;4970632;28;20046;-79
2023/09/11 09:00:40;;;;;;;16.85;5.90;;;;;;;;;;4974086;28;19918;-78
2023/09/11 09:03:13;;;;;;;11.05;5.32;;;;;;;;;;4958152;28;20050;-78
2023/09/11 09:05:46;;;;;;;14.40;5.97;;;;;;;;;;4954977;29;20398;-78
2023/09/11 09:08:19;;;;;;;10.38;5.47;;;;;;;;;;4954790;29;20489;-79
2023/09/11 09:10:52;;;;;;;14.30;5.72;;;;;;;;;;4935259;29;20040;-79
2023/09/11 09:13:29;;;;;;;15.25;6.25;;;;;;;;;;4934476;29;20051;-78
2023/09/11 09:16:07;;;;;;;15.10;6.03;;;;;;;;;;4936206;29;20047;-79
2023/09/11 09:18:41;;;;;;;17.13;5.50;;;;;;;;;;4936318;29;20043;-79
2023/09/11 09:21:13;;;;;;;17.85;5.43;;;;;;;;;;4935747;29;20042;-77
2023/09/11 09:23:50;;;;;;;13.18;5.07;;;;;;;;;;4933697;29;20379;-79
2023/09/11 09:26:25;;;;;;;13.07;5.30;;;;;;;;;;4936062;29;20387;-79
2023/09/11 09:28:57;;;;;;;16.77;5.63;;;;;;;;;;4939382;29;20063;-79
2023/09/11 09:31:30;;;;;;;11.98;5.28;;;;;;;;;;4938837;29;20039;-77
2023/09/11 09:34:03;;;;;;;11.68;5.05;;;;;;;;;;4939144;29;20047;-78
2023/09/11 09:36:36;;;;;;;13.88;5.40;;;;;;;;;;4937444;29;20053;-78
2023/09/11 09:39:08;;;;;;;13.75;5.15;;;;;;;;;;4939267;29;20506;-78
2023/09/11 09:41:40;;;;;;;13.02;5.22;;;;;;;;;;4935423;29;20048;-79
2023/09/11 09:44:27;;;;;;;15.45;5.28;;;;;;;;;;4926693;29;20105;-77
2023/09/11 09:47:21;;;;;;;15.32;5.00;;;;;;;;;;4932371;29;20047;-79
2023/09/11 09:49:54;;;;;;;15.05;5.00;;;;;;;;;;4938833;29;20095;-77
2023/09/11 09:52:30;;;;;;;15.48;4.72;;;;;;;;;;4939151;29;20051;-78
2023/09/11 09:55:08;;;;;;;17.88;5.55;;;;;;;;;;4938828;29;20043;-79
2023/09/11 09:57:45;;;;;;;11.60;5.55;;;;;;;;;;4938765;29;20043;-79
2023/09/11 10:00:17;;;;;;;13.38;5.75;;;;;;;;;;4938777;29;20048;-78
2023/09/11 10:02:55;;;;;;;18.23;5.40;;;;;;;;;;4938876;29;20043;-77
2023/09/11 10:05:29;;;;;;;14.38;5.15;;;;;;;;;;4938903;29;20051;-77
2023/09/11 10:08:01;;;;;;;15.30;5.30;;;;;;;;;;4938910;29;20483;-78
2023/09/11 10:10:33;;;;;;;13.68;5.32;;;;;;;;;;4973199;28;20051;-78
2023/09/11 10:13:05;;;;;;;15.27;5.28;;;;;;;;;;4976957;28;20046;-78
2023/09/11 10:15:44;;;;;;;14.32;5.65;;;;;;;;;;4977604;28;20386;-76
2023/09/11 10:18:18;;;;;;;18.15;5.50;;;;;;;;;;4959643;28;20474;-78
2023/09/11 10:20:49;;;;;;;;;;;;;;;;;;4988352;28;20042;-78
2023/09/11 10:23:20;;;;;;;14.20;5.80;;;;;;;;;;4987021;28;19922;-77
2023/09/11 10:25:59;;;;;;;11.35;5.55;;;;;;;;;;4988065;28;20514;-77
2023/09/11 10:28:36;;;;;;;16.25;6.13;;;;;;;;;;4982780;28;20051;-80
2023/09/11 10:31:57;;;;;;;17.65;6.75;;;;;;;;;;5000631;28;20045;-78
2023/09/11 10:34:38;;;;;;;15.35;6.38;;;;;;;;;;4922050;29;20106;-79
2023/09/11 10:37:12;;;;;;;17.67;6.68;;;;;;;;;;4881894;29;20068;-79
2023/09/11 10:39:46;;;;;;;14.65;5.82;;;;;;;;;;4954295;28;20066;-80
2023/09/11 10:42:17;;;;;;;15.02;7.18;;;;;;;;;;4976601;28;20382;-78
2023/09/11 10:44:53;;;;;;;18.75;7.82;;;;;;;;;;4977119;28;20046;-79
2023/09/11 10:47:27;;;;;;;20.17;9.85;;;;;;;;;;4976890;28;20046;-79
2023/09/11 10:50:02;;;;;;;21.48;10.85;;;;;;;;;;4976472;28;20038;-78
2023/09/11 10:52:33;;;;;;;28.20;12.70;;;;;;;;;;4976289;28;20042;-78
2023/09/11 10:55:05;;;;;;;37.58;20.40;;;;;;;;;;4976750;28;20038;-78
2023/09/11 10:57:36;;;;;;;33.88;15.55;;;;;;;;;;4976940;28;20047;-79
2023/09/11 11:00:13;;;;;;;52.25;22.95;;;;;;;;;;4958202;28;20473;-79
2023/09/11 11:02:44;;;;;;;34.75;14.73;;;;;;;;;;4976562;28;20439;-79
2023/09/11 11:05:16;;;;;;;30.88;13.57;;;;;;;;;;4975892;28;20512;-78
2023/09/11 11:07:49;;;;;;;25.98;12.68;;;;;;;;;;4976372;28;20047;-80
2023/09/11 11:10:21;;;;;;;31.58;16.20;;;;;;;;;;4975050;28;20065;-79
2023/09/11 11:13:11;;;;;;;26.95;13.80;;;;;;;;;;4955089;28;20047;-79
2023/09/11 11:15:43;;;;;;;26.52;11.90;;;;;;;;;;4974870;28;20045;-80
2023/09/11 11:18:27;;;;;;;26.05;11.65;;;;;;;;;;4976245;28;20046;-78
2023/09/11 11:21:01;;;;;;;22.20;10.35;;;;;;;;;;4973602;28;20050;-79
2023/09/11 11:23:51;;;;;;;26.40;12.30;;;;;;;;;;4959424;28;20382;-80
2023/09/11 11:26:25;;;;;;;27.15;10.88;;;;;;;;;;4975073;28;20043;-81
2023/09/11 11:29:00;;;;;;;24.67;12.30;;;;;;;;;;4955554;28;20070;-81
2023/09/11 11:31:33;;;;;;;22.40;10.10;;;;;;;;;;4974905;28;20043;-79
2023/09/11 11:34:11;;;;;;;30.50;11.30;;;;;;;;;;4968171;28;20049;-80
2023/09/11 11:36:45;;;;;;;26.23;11.23;;;;;;;;;;4974745;28;20462;-80
2023/09/11 11:39:17;;;;;;;21.65;10.50;;;;;;;;;;4955929;28;20544;-81
2023/09/11 11:41:52;;;;;;;32.90;10.73;;;;;;;;;;4974905;28;20039;-80
2023/09/11 11:44:25;;;;;;;24.25;10.75;;;;;;;;;;4975241;28;20046;-79
2023/09/11 11:46:57;;;;;;;26.48;10.35;;;;;;;;;;4974847;28;20042;-80
2023/09/11 11:49:38;;;;;;;29.55;12.18;;;;;;;;;;4973846;28;20034;-83
2023/09/11 11:52:11;;;;;;;25.38;10.07;;;;;;;;;;4955252;28;20038;-81
2023/09/11 11:54:42;;;;;;;24.10;10.80;;;;;;;;;;4974936;28;20482;-81
2023/09/11 11:57:14;;;;;;;;;;;;;;;;;;4975174;28;20043;-80
2023/09/11 11:59:47;;;;;;;22.85;10.65;;;;;;;;;;4974734;28;19925;-81
2023/09/11 12:02:24;;;;;;;21.88;9.05;;;;;;;;;;4974189;28;20035;-80
2023/09/11 12:04:56;;;;;;;26.90;8.90;;;;;;;;;;4973623;28;20043;-80
2023/09/11 12:07:27;;;;;;;;;;;;;;;;;;4972994;28;20051;-80
2023/09/11 12:09:59;;;;;;;;;;;;;;;;;;4973910;28;20333;-80
2023/09/11 12:12:39;;;;;;;24.27;9.50;;;;;;;;;;4973629;28;19933;-81
2023/09/11 12:15:11;;;;;;;20.85;9.68;;;;;;;;;;4956438;28;20057;-80
2023/09/11 12:17:50;;;;;;;21.33;9.10;;;;;;;;;;4972163;28;20042;-82
2023/09/11 12:20:23;;;;;;;32.83;10.07;;;;;;;;;;4959622;28;20047;-81
2023/09/11 12:22:55;;;;;;;22.17;10.25;;;;;;;;;;4953904;29;20035;-81
2023/09/11 12:25:29;;;;;;;22.35;10.02;;;;;;;;;;4954050;29;20058;-82
2023/09/11 12:28:01;;;;;;;21.73;9.55;;;;;;;;;;4952772;29;20158;-82
2023/09/11 12:30:32;;;;;;;17.27;7.80;;;;;;;;;;4946618;28;20401;-81
2023/09/11 12:33:10;;;;;;;16.20;7.53;;;;;;;;;;4954893;28;20053;-81
2023/09/11 12:35:46;;;;;;;15.82;6.80;;;;;;;;;;4954022;29;20054;-82
2023/09/11 12:38:21;;;;;;;8.95;5.00;;;;;;;;;;4954180;29;20047;-83
2023/09/11 12:40:54;;;;;;;8.35;4.70;;;;;;;;;;4937083;29;20039;-83
2023/09/11 12:43:29;;;;;;;12.77;4.72;;;;;;;;;;4954029;29;20490;-84
2023/09/11 12:46:03;;;;;;;8.57;4.20;;;;;;;;;;4957391;28;20057;-83
2023/09/11 12:48:47;;;;;;;7.78;3.80;;;;;;;;;;4956523;28;20046;-83
2023/09/11 12:51:18;;;;;;;8.13;3.67;;;;;;;;;;4955169;28;20043;-82
2023/09/11 12:53:52;;;;;;;6.57;3.85;;;;;;;;;;4956456;28;20057;-85
2023/09/11 12:56:24;;;;;;;7.55;4.35;;;;;;;;;;4973469;28;20086;-82
2023/09/11 12:58:59;;;;;;;6.25;4.03;;;;;;;;;;4973184;28;20048;-81
2023/09/11 13:01:33;;;;;;;6.25;3.67;;;;;;;;;;4968079;28;20046;-84
2023/09/11 13:04:08;;;;;;;6.55;3.30;;;;;;;;;;4924829;29;20047;-81
2023/09/11 13:06:41;;;;;;;7.75;3.60;;;;;;;;;;4957677;29;20062;-82
2023/09/11 13:09:12;;;;;;;7.78;3.70;;;;;;;;;;4956483;29;20061;-81
2023/09/11 13:11:43;;;;;;;9.70;3.40;;;;;;;;;;4957579;29;20494;-82
2023/09/11 13:14:18;;;;;;;7.88;3.60;;;;;;;;;;4957137;29;20031;-84
2023/09/11 13:16:50;;;;;;;6.82;3.75;;;;;;;;;;4957293;29;20043;-83
2023/09/11 13:19:23;;;;;;;6.10;3.38;;;;;;;;;;4959635;28;20050;-82
2023/09/11 13:21:54;;;;;;;7.35;3.55;;;;;;;;;;4976615;28;20045;-83
2023/09/11 13:24:27;;;;;;;7.97;3.45;;;;;;;;;;4976268;28;20042;-83
2023/09/11 13:27:00;;;;;;;6.93;3.58;;;;;;;;;;4975964;28;20038;-86
2023/09/11 13:29:32;;;;;;;7.03;3.55;;;;;;;;;;4959836;28;20042;-82
2023/09/11 13:32:02;;;;;;;5.75;3.20;;;;;;;;;;4976200;28;20601;-82
2023/09/11 13:34:37;;;;;;;7.22;3.50;;;;;;;;;;4976698;28;20054;-83
2023/09/11 13:37:09;;;;;;;8.60;3.50;;;;;;;;;;4976381;28;20046;-82
2023/09/11 13:39:42;;;;;;;6.10;3.35;;;;;;;;;;4976195;28;20049;-83
2023/09/11 13:42:12;;;;;;;6.28;3.53;;;;;;;;;;4976478;28;20046;-84
2023/09/11 13:44:45;;;;;;;9.18;3.80;;;;;;;;;;4976314;28;20043;-82
2023/09/11 13:47:20;;;;;;;8.05;3.30;;;;;;;;;;4958174;28;20142;-81
2023/09/11 13:49:51;;;;;;;7.05;3.25;;;;;;;;;;4957991;28;20066;-81
2023/09/11 13:52:23;;;;;;;6.05;3.10;;;;;;;;;;4958293;28;20053;-82
2023/09/11 13:54:56;;;;;;;7.30;3.53;;;;;;;;;;4958266;28;20054;-81
2023/09/11 13:57:30;;;;;;;8.27;3.58;;;;;;;;;;4976060;28;20050;-84
2023/09/11 14:00:04;;;;;;;6.05;3.40;;;;;;;;;;4975440;28;20046;-82
2023/09/11 14:02:39;;;;;;;6.90;3.92;;;;;;;;;;4961302;28;20043;-82
2023/09/11 14:05:11;;;;;;;5.53;3.42;;;;;;;;;;4956529;29;20051;-82
2023/09/11 14:07:44;;;;;;;7.97;3.35;;;;;;;;;;4956628;29;20395;-82
2023/09/11 14:10:16;;;;;;;6.78;3.75;;;;;;;;;;4973242;28;20062;-81
2023/09/11 14:12:47;;;;;;;;;;;;;;;;;;4975458;28;20055;-80
2023/09/11 14:15:31;;;;;;;6.28;3.35;;;;;;;;;;4935299;29;20008;-81
2023/09/11 14:18:03;;;;;;;6.95;3.88;;;;;;;;;;4902908;29;20056;-81
2023/09/11 14:20:37;;;;;;;7.07;3.33;;;;;;;;;;4918707;29;20058;-82
2023/09/11 14:23:08;;;;;;;5.93;3.30;;;;;;;;;;4934484;29;20052;-81
2023/09/11 14:25:40;;;;;;;7.90;3.47;;;;;;;;;;4934997;29;20051;-81
2023/09/11 14:28:14;;;;;;;6.80;3.10;;;;;;;;;;4934311;29;20048;-80
2023/09/11 14:30:47;;;;;;;7.68;3.95;;;;;;;;;;4934618;29;20451;-80
2023/09/11 14:33:19;;;;;;;7.18;3.60;;;;;;;;;;4934208;29;20063;-81
2023/09/11 14:35:51;;;;;;;8.43;3.30;;;;;;;;;;4934850;29;20582;-82
2023/09/11 14:38:24;;;;;;;8.90;3.95;;;;;;;;;;4934941;29;20110;-82
2023/09/11 14:40:56;;;;;;;8.73;3.63;;;;;;;;;;4934513;29;20500;-83
2023/09/11 14:43:27;;;;;;;6.30;3.17;;;;;;;;;;4934177;29;20070;-80
2023/09/11 14:46:03;;;;;;;5.95;3.45;;;;;;;;;;4934043;29;20058;-82
2023/09/11 14:48:38;;;;;;;5.38;3.15;;;;;;;;;;4934866;29;20347;-82
2023/09/11 14:51:11;;;;;;;6.13;3.45;;;;;;;;;;4934585;29;20611;-80
2023/09/11 14:53:45;;;;;;;6.00;3.53;;;;;;;;;;4968646;28;20059;-82
2023/09/11 14:56:16;;;;;;;6.70;3.70;;;;;;;;;;4975039;28;20054;-83
2023/09/11 14:58:50;;;;;;;5.78;3.35;;;;;;;;;;4958118;28;20042;-82
2023/09/11 15:01:22;;;;;;;9.60;3.75;;;;;;;;;;4952096;29;20417;-82
2023/09/11 15:03:55;;;;;;;8.05;3.38;;;;;;;;;;4955210;29;20047;-83
2023/09/11 15:06:27;;;;;;;6.20;3.83;;;;;;;;;;4955905;29;20051;-83
2023/09/11 15:09:02;;;;;;;5.88;3.40;;;;;;;;;;4939328;28;20067;-83
2023/09/11 15:11:35;;;;;;;8.50;3.92;;;;;;;;;;4958357;28;20370;-84